createdAt,value
2022-09-03T00:00:25.346Z,16.81
2022-09-03T00:02:32.073Z,16.80
2022-09-03T00:04:57.362Z,16.75
2022-09-03T00:07:03.905Z,16.70
2022-09-03T00:09:26.026Z,16.66
2022-09-03T00:11:31.926Z,16.63
2022-09-03T00:13:38.638Z,16.59
2022-09-03T00:15:40.759Z,16.55
2022-09-03T00:17:57.089Z,16.51
2022-09-03T00:20:13.002Z,16.49
2022-09-03T00:22:30.370Z,16.45
2022-09-03T00:24:39.272Z,16.41
2022-09-03T00:26:45.351Z,16.39
2022-09-03T00:29:06.686Z,16.38
2022-09-03T00:31:24.359Z,16.33
2022-09-03T00:33:32.435Z,16.34
2022-09-03T00:35:41.486Z,16.30
2022-09-03T00:37:43.968Z,16.27
2022-09-03T00:39:45.860Z,16.22
2022-09-03T00:42:26.118Z,16.20
2022-09-03T00:44:46.780Z,16.17
2022-09-03T00:46:51.017Z,16.15
2022-09-03T00:49:12.549Z,16.11
2022-09-03T00:51:28.339Z,16.10
2022-09-03T00:53:34.692Z,16.03
2022-09-03T00:55:55.588Z,16.00
2022-09-03T00:58:30.878Z,15.96
2022-09-03T01:00:32.499Z,15.89
2022-09-03T01:03:02.081Z,15.84
2022-09-03T01:05:15.556Z,15.82
2022-09-03T01:07:22.875Z,15.80
2022-09-03T01:09:28.648Z,15.82
2022-09-03T01:11:36.902Z,15.76
2022-09-03T01:13:41.646Z,15.76
2022-09-03T01:16:02.034Z,15.74
2022-09-03T01:18:21.200Z,15.69
2022-09-03T01:20:35.520Z,15.67
2022-09-03T01:23:03.238Z,15.60
2022-09-03T01:25:44.916Z,15.52
2022-09-03T01:28:13.558Z,15.49
2022-09-03T01:30:18.525Z,15.44
2022-09-03T01:32:29.538Z,15.45
2022-09-03T01:34:38.741Z,15.42
2022-09-03T01:37:01.166Z,15.39
2022-09-03T01:39:06.440Z,15.37
2022-09-03T01:41:29.732Z,15.31
2022-09-03T01:43:51.778Z,15.26
2022-09-03T01:46:00.330Z,15.24
2022-09-03T01:48:30.432Z,15.18
2022-09-03T01:50:57.853Z,15.13
2022-09-03T01:53:07.502Z,15.12
2022-09-03T01:55:12.045Z,15.06
2022-09-03T01:57:37.021Z,15.02
2022-09-03T02:00:00.964Z,15.00
2022-09-03T02:02:07.949Z,14.99
2022-09-03T02:04:23.192Z,14.98
2022-09-03T02:06:25.190Z,14.97
2022-09-03T02:08:26.738Z,14.96
2022-09-03T02:10:43.665Z,14.98
2022-09-03T02:13:00.814Z,14.93
2022-09-03T02:15:06.789Z,14.91
2022-09-03T02:17:09.107Z,14.90
2022-09-03T02:19:15.761Z,14.87
2022-09-03T02:21:21.300Z,14.84
2022-09-03T02:23:24.728Z,14.82
2022-09-03T02:25:37.685Z,14.77
2022-09-03T02:27:39.492Z,14.76
2022-09-03T02:29:41.103Z,14.71
2022-09-03T02:31:42.779Z,14.69
2022-09-03T02:33:47.247Z,14.67
2022-09-03T02:35:49.018Z,14.64
2022-09-03T02:37:50.566Z,14.66
2022-09-03T02:39:52.237Z,14.65
2022-09-03T02:41:57.400Z,14.65
2022-09-03T02:44:02.105Z,14.65
2022-09-03T02:46:08.418Z,14.64
2022-09-03T02:48:11.293Z,14.63
2022-09-03T02:50:12.846Z,14.64
2022-09-03T02:52:14.343Z,14.63
2022-09-03T02:54:20.743Z,14.64
2022-09-03T02:56:25.913Z,14.60
2022-09-03T02:58:28.793Z,14.62
2022-09-03T03:00:30.396Z,14.59
2022-09-03T03:02:31.889Z,14.60
2022-09-03T03:04:33.715Z,14.58
2022-09-03T03:06:35.246Z,14.57
2022-09-03T03:08:36.802Z,14.56
2022-09-03T03:10:38.678Z,14.55
2022-09-03T03:12:40.174Z,14.55
2022-09-03T03:14:41.688Z,14.54
2022-09-03T03:16:43.468Z,14.53
2022-09-03T03:18:47.695Z,14.51
2022-09-03T03:20:49.279Z,14.52
2022-09-03T03:22:50.886Z,14.49
2022-09-03T03:24:52.827Z,14.46
2022-09-03T03:26:58.295Z,14.46
2022-09-03T03:29:01.639Z,14.47
2022-09-03T03:31:11.375Z,14.49
2022-09-03T03:33:12.999Z,14.48
2022-09-03T03:35:14.729Z,14.46
2022-09-03T03:37:16.227Z,14.44
2022-09-03T03:39:17.752Z,14.47
2022-09-03T03:41:22.174Z,14.51
2022-09-03T03:43:23.674Z,14.47
2022-09-03T03:45:25.333Z,14.48
2022-09-03T03:47:26.820Z,14.47
2022-09-03T03:49:28.288Z,14.44
2022-09-03T03:51:30.576Z,14.45
2022-09-03T03:53:32.601Z,14.43
2022-09-03T03:55:35.324Z,14.42
2022-09-03T03:57:36.942Z,14.40
2022-09-03T03:59:38.447Z,14.41
2022-09-03T04:01:40.025Z,14.39
2022-09-03T04:03:42.787Z,14.38
2022-09-03T04:05:48.420Z,14.39
2022-09-03T04:07:50.177Z,14.37
2022-09-03T04:09:51.674Z,14.38
2022-09-03T04:11:53.175Z,14.37
2022-09-03T04:13:54.777Z,14.37
2022-09-03T04:16:15.109Z,14.37
2022-09-03T04:18:16.679Z,14.39
2022-09-03T04:20:18.152Z,14.38
2022-09-03T04:22:20.707Z,14.34
2022-09-03T04:24:22.643Z,14.34
2022-09-03T04:26:32.057Z,14.32
2022-09-03T04:28:34.636Z,14.31
2022-09-03T04:30:37.905Z,14.30
2022-09-03T04:32:54.637Z,14.28
2022-09-03T04:34:56.219Z,14.27
2022-09-03T04:36:59.109Z,14.28
2022-09-03T04:39:04.554Z,14.27
2022-09-03T04:41:07.811Z,14.29
2022-09-03T04:43:09.295Z,14.27
2022-09-03T04:45:12.114Z,14.28
2022-09-03T04:47:15.154Z,14.29
2022-09-03T04:49:16.680Z,14.29
2022-09-03T04:51:21.340Z,14.27
2022-09-03T04:53:23.056Z,14.27
2022-09-03T04:55:24.556Z,14.26
2022-09-03T04:57:27.051Z,14.22
2022-09-03T04:59:28.578Z,14.21
2022-09-03T05:01:32.484Z,14.19
2022-09-03T05:03:34.414Z,14.20
2022-09-03T05:05:35.893Z,14.23
2022-09-03T05:07:38.772Z,14.24
2022-09-03T05:09:40.328Z,14.25
2022-09-03T05:11:41.848Z,14.26
2022-09-03T05:13:43.693Z,14.26
2022-09-03T05:15:45.357Z,14.28
2022-09-03T05:17:47.757Z,14.29
2022-09-03T05:19:49.269Z,14.28
2022-09-03T05:21:50.770Z,14.28
2022-09-03T05:23:53.077Z,14.29
2022-09-03T05:25:59.730Z,14.31
2022-09-03T05:28:01.962Z,14.36
2022-09-03T05:30:03.710Z,14.37
2022-09-03T05:32:05.426Z,14.40
2022-09-03T05:34:08.036Z,14.38
2022-09-03T05:36:14.407Z,14.39
2022-09-03T05:38:18.033Z,14.41
2022-09-03T05:40:19.584Z,14.42
2022-09-03T05:42:21.969Z,14.46
2022-09-03T05:44:23.828Z,14.52
2022-09-03T05:46:34.109Z,14.57
2022-09-03T05:48:37.692Z,14.64
2022-09-03T05:50:39.337Z,14.71
2022-09-03T05:52:40.808Z,14.77
2022-09-03T05:54:42.511Z,14.83
2022-09-03T05:56:44.049Z,14.86
2022-09-03T05:58:48.918Z,14.91
2022-09-03T06:00:50.442Z,14.96
2022-09-03T06:02:52.946Z,15.02
2022-09-03T06:04:55.910Z,15.07
2022-09-03T06:06:57.471Z,15.11
2022-09-03T06:09:02.570Z,15.15
2022-09-03T06:11:04.926Z,15.19
2022-09-03T06:13:06.389Z,15.24
2022-09-03T06:15:11.331Z,15.29
2022-09-03T06:17:13.279Z,15.34
2022-09-03T06:19:15.592Z,15.37
2022-09-03T06:21:17.234Z,15.41
2022-09-03T06:23:18.775Z,15.47
2022-09-03T06:25:20.972Z,15.52
2022-09-03T06:27:23.103Z,15.56
2022-09-03T06:29:24.677Z,15.61
2022-09-03T06:31:26.700Z,15.65
2022-09-03T06:33:30.933Z,15.70
2022-09-03T06:35:39.201Z,15.78
2022-09-03T06:37:45.056Z,15.83
2022-09-03T06:39:46.978Z,15.90
2022-09-03T06:41:51.972Z,15.94
2022-09-03T06:44:05.318Z,16.00
2022-09-03T06:46:12.376Z,16.06
2022-09-03T06:48:14.275Z,16.11
2022-09-03T06:50:15.757Z,16.17
2022-09-03T06:52:17.254Z,16.20
2022-09-03T06:54:18.762Z,16.27
2022-09-03T06:56:26.357Z,16.33
2022-09-03T06:58:33.182Z,16.38
2022-09-03T07:00:34.700Z,16.39
2022-09-03T07:02:36.180Z,16.41
2022-09-03T07:04:37.650Z,16.46
2022-09-03T07:06:40.491Z,16.51
2022-09-03T07:08:43.027Z,16.59
2022-09-03T07:10:47.628Z,16.66
2022-09-03T07:12:49.110Z,16.70
2022-09-03T07:14:52.920Z,16.77
2022-09-03T07:16:55.069Z,16.84
2022-09-03T07:18:57.141Z,16.88
2022-09-03T07:21:04.373Z,16.92
2022-09-03T07:23:05.901Z,16.91
2022-09-03T07:25:07.840Z,16.93
2022-09-03T07:27:13.048Z,16.99
2022-09-03T07:29:20.469Z,17.04
2022-09-03T07:31:26.186Z,17.10
2022-09-03T07:33:33.554Z,17.15
2022-09-03T07:35:37.053Z,17.23
2022-09-03T07:37:41.590Z,17.30
2022-09-03T07:39:44.036Z,17.34
2022-09-03T07:41:46.570Z,17.41
2022-09-03T07:43:48.287Z,17.45
2022-09-03T07:45:54.758Z,17.52
2022-09-03T07:47:56.947Z,17.58
2022-09-03T07:49:58.942Z,17.63
2022-09-03T07:52:00.432Z,17.70
2022-09-03T07:54:04.910Z,17.75
2022-09-03T07:56:09.018Z,17.80
2022-09-03T07:58:14.213Z,17.84
2022-09-03T08:00:17.535Z,17.91
2022-09-03T08:02:19.049Z,17.96
2022-09-03T08:04:22.079Z,18.03
2022-09-03T08:06:26.222Z,18.10
2022-09-03T08:08:27.807Z,18.17
2022-09-03T08:10:38.327Z,18.23
2022-09-03T08:12:39.812Z,18.30
2022-09-03T08:14:41.327Z,18.34
2022-09-03T08:16:47.296Z,18.39
2022-09-03T08:18:51.227Z,18.41
2022-09-03T08:20:52.961Z,18.42
2022-09-03T08:23:01.818Z,18.47
2022-09-03T08:25:03.995Z,18.52
2022-09-03T08:27:05.516Z,18.60
2022-09-03T08:29:07.010Z,18.71
2022-09-03T08:31:17.306Z,18.82
2022-09-03T08:33:36.983Z,18.86
2022-09-03T08:35:39.753Z,18.92
2022-09-03T08:37:41.227Z,19.00
2022-09-03T08:39:42.777Z,19.04
2022-09-03T08:41:53.506Z,19.13
2022-09-03T08:44:09.932Z,19.20
2022-09-03T08:46:12.337Z,19.24
2022-09-03T08:48:20.747Z,19.29
2022-09-03T08:50:27.407Z,19.34
2022-09-03T08:52:49.976Z,19.43
2022-09-03T08:54:55.827Z,19.49
2022-09-03T08:57:01.922Z,19.58
2022-09-03T08:59:04.735Z,19.65
2022-09-03T09:01:24.821Z,19.68
2022-09-03T09:03:47.088Z,19.74
2022-09-03T09:05:57.528Z,19.77
2022-09-03T09:08:27.360Z,19.79
2022-09-03T09:11:03.511Z,19.85
2022-09-03T09:13:19.987Z,19.94
2022-09-03T09:15:39.947Z,20.02
2022-09-03T09:17:59.529Z,20.07
2022-09-03T09:20:26.374Z,20.17
2022-09-03T09:22:38.467Z,20.24
2022-09-03T09:24:46.877Z,20.30
2022-09-03T09:26:49.484Z,20.33
2022-09-03T09:29:01.435Z,20.38
2022-09-03T09:31:04.922Z,20.47
2022-09-03T09:33:07.153Z,20.56
2022-09-03T09:35:10.591Z,20.61
2022-09-03T09:37:16.041Z,20.62
2022-09-03T09:39:19.155Z,20.67
2022-09-03T09:41:27.613Z,20.72
2022-09-03T09:43:31.351Z,20.78
2022-09-03T09:45:38.145Z,20.84
2022-09-03T09:47:43.111Z,20.84
2022-09-03T09:49:47.390Z,20.84
2022-09-03T09:51:49.459Z,20.85
2022-09-03T09:54:19.206Z,20.92
2022-09-03T09:56:25.925Z,20.99
2022-09-03T09:58:30.850Z,21.09
2022-09-03T10:00:37.913Z,21.17
2022-09-03T10:02:42.398Z,21.25
2022-09-03T10:04:45.648Z,21.33
2022-09-03T10:06:55.456Z,21.46
2022-09-03T10:09:08.426Z,21.54
2022-09-03T10:11:10.243Z,21.59
2022-09-03T10:13:18.606Z,21.70
2022-09-03T10:15:36.577Z,21.70
2022-09-03T10:18:07.706Z,21.82
2022-09-03T10:20:27.412Z,21.88
2022-09-03T10:22:31.617Z,21.92
2022-09-03T10:24:58.346Z,22.04
2022-09-03T10:26:59.878Z,22.08
2022-09-03T10:29:03.912Z,22.16
2022-09-03T10:31:20.340Z,22.24
2022-09-03T10:33:37.931Z,22.39
2022-09-03T10:35:47.246Z,22.55
2022-09-03T10:37:48.691Z,22.68
2022-09-03T10:40:18.932Z,22.86
2022-09-03T10:42:45.760Z,23.05
2022-09-03T10:45:11.442Z,23.23
2022-09-03T10:47:29.368Z,23.42
2022-09-03T10:49:40.103Z,23.61
2022-09-03T10:51:49.497Z,23.82
2022-09-03T10:53:51.241Z,23.95
2022-09-03T10:56:17.810Z,24.27
2022-09-03T10:58:23.653Z,24.52
2022-09-03T11:00:28.557Z,24.80
2022-09-03T11:02:54.840Z,25.12
2022-09-03T11:05:04.999Z,25.35
2022-09-03T11:07:10.403Z,25.68
2022-09-03T11:09:20.114Z,25.99
2022-09-03T11:11:29.796Z,26.22
2022-09-03T11:13:38.008Z,26.43
2022-09-03T11:15:51.941Z,26.65
2022-09-03T11:18:33.867Z,26.88
2022-09-03T11:20:35.656Z,26.75
2022-09-03T11:22:46.553Z,26.79
2022-09-03T11:24:58.413Z,26.97
2022-09-03T11:27:15.991Z,27.14
2022-09-03T11:29:18.344Z,27.23
2022-09-03T11:32:01.704Z,27.36
2022-09-03T11:34:23.405Z,27.43
2022-09-03T11:36:38.143Z,27.30
2022-09-03T11:38:39.674Z,27.43
2022-09-03T11:41:00.642Z,27.57
2022-09-03T11:43:24.260Z,27.67
2022-09-03T11:45:30.132Z,27.70
2022-09-03T11:47:41.533Z,27.68
2022-09-03T11:49:53.195Z,27.57
2022-09-03T11:52:03.661Z,27.45
2022-09-03T11:54:24.498Z,27.34
2022-09-03T11:56:27.540Z,27.20
2022-09-03T11:58:36.578Z,27.10
2022-09-03T12:00:40.983Z,26.99
2022-09-03T12:02:52.487Z,26.96
2022-09-03T12:05:25.836Z,26.87
2022-09-03T12:07:55.301Z,26.82
2022-09-03T12:10:35.370Z,26.71
2022-09-03T12:12:54.803Z,26.62
2022-09-03T12:15:02.492Z,26.55
2022-09-03T12:17:18.328Z,26.37
2022-09-03T12:19:32.736Z,26.26
2022-09-03T12:21:40.170Z,26.24
2022-09-03T12:23:49.133Z,26.29
2022-09-03T12:25:52.516Z,26.26
2022-09-03T12:27:54.099Z,26.08
2022-09-03T12:30:00.965Z,25.90
2022-09-03T12:32:08.597Z,25.87
2022-09-03T12:34:13.326Z,25.84
2022-09-03T12:36:16.082Z,25.80
2022-09-03T12:38:24.895Z,25.73
2022-09-03T12:40:29.277Z,25.64
2022-09-03T12:42:32.265Z,25.43
2022-09-03T12:44:36.804Z,25.36
2022-09-03T12:46:38.353Z,25.33
2022-09-03T12:48:46.951Z,25.30
2022-09-03T12:50:56.505Z,25.24
2022-09-03T12:53:01.839Z,25.26
2022-09-03T12:55:16.605Z,25.15
2022-09-03T12:57:23.558Z,25.10
2022-09-03T12:59:28.363Z,25.00
2022-09-03T13:01:34.939Z,25.02
2022-09-03T13:03:50.589Z,24.96
2022-09-03T13:05:57.264Z,24.92
2022-09-03T13:08:04.048Z,24.85
2022-09-03T13:10:08.734Z,24.86
2022-09-03T13:12:33.556Z,24.78
2022-09-03T13:14:47.665Z,24.71
2022-09-03T13:17:21.268Z,24.67
2022-09-03T13:19:51.859Z,24.55
2022-09-03T13:22:22.607Z,24.60
2022-09-03T13:24:39.349Z,24.64
2022-09-03T13:27:08.158Z,24.63
2022-09-03T13:29:30.115Z,24.64
2022-09-03T13:31:38.787Z,24.65
2022-09-03T13:33:55.710Z,24.60
2022-09-03T13:36:03.463Z,24.53
2022-09-03T13:38:23.120Z,24.50
2022-09-03T13:40:35.059Z,24.47
2022-09-03T13:42:41.413Z,24.46
2022-09-03T13:44:50.145Z,24.45
2022-09-03T13:46:56.033Z,24.42
2022-09-03T13:49:43.720Z,24.40
2022-09-03T13:51:56.969Z,24.33
2022-09-03T13:54:47.635Z,24.30
2022-09-03T13:56:58.797Z,24.31
2022-09-03T13:59:31.168Z,24.31
2022-09-03T14:01:41.874Z,24.30
2022-09-03T14:03:48.931Z,24.30
2022-09-03T14:05:56.705Z,24.29
2022-09-03T14:08:09.986Z,24.28
2022-09-03T14:10:14.411Z,24.26
2022-09-03T14:12:42.656Z,24.27
2022-09-03T14:15:11.015Z,24.26
2022-09-03T14:17:14.892Z,24.25
2022-09-03T14:19:23.789Z,24.25
2022-09-03T14:21:35.914Z,24.22
2022-09-03T14:23:55.096Z,24.21
2022-09-03T14:26:00.534Z,24.17
2022-09-03T14:28:43.049Z,24.16
2022-09-03T14:31:05.298Z,24.15
2022-09-03T14:33:21.797Z,24.17
2022-09-03T14:35:45.450Z,24.16
2022-09-03T14:37:52.660Z,24.16
2022-09-03T14:40:03.974Z,24.16
2022-09-03T14:42:07.159Z,24.15
2022-09-03T14:44:32.750Z,24.12
2022-09-03T14:46:58.312Z,24.13
2022-09-03T14:49:17.950Z,24.08
2022-09-03T14:51:46.336Z,24.08
2022-09-03T14:53:55.660Z,24.05
2022-09-03T14:56:05.544Z,24.04
2022-09-03T14:58:23.816Z,23.95
2022-09-03T15:00:48.451Z,23.82
2022-09-03T15:02:58.967Z,23.73
2022-09-03T15:05:21.256Z,23.75
2022-09-03T15:07:59.520Z,23.72
2022-09-03T15:10:12.122Z,23.70
2022-09-03T15:12:13.557Z,23.69
2022-09-03T15:14:22.267Z,23.68
2022-09-03T15:16:45.473Z,23.67
2022-09-03T15:18:53.768Z,23.64
2022-09-03T15:21:47.551Z,23.59
2022-09-03T15:24:43.243Z,23.58
2022-09-03T15:27:22.214Z,23.57
2022-09-03T15:29:33.643Z,23.59
2022-09-03T15:32:09.714Z,23.59
2022-09-03T15:34:18.196Z,23.59
2022-09-03T15:36:26.386Z,23.63
2022-09-03T15:38:45.249Z,23.62
2022-09-03T15:40:46.668Z,23.62
2022-09-03T15:42:52.704Z,23.63
2022-09-03T15:45:01.794Z,23.60
2022-09-03T15:47:31.732Z,23.60
2022-09-03T15:50:15.331Z,23.54
2022-09-03T15:52:33.645Z,23.57
2022-09-03T15:54:43.074Z,23.54
2022-09-03T15:56:59.728Z,23.55
2022-09-03T15:59:12.400Z,23.53
2022-09-03T16:01:33.060Z,23.53
2022-09-03T16:04:09.700Z,23.49
2022-09-03T16:06:37.520Z,23.51
2022-09-03T16:08:50.457Z,23.49
2022-09-03T16:11:07.746Z,23.52
2022-09-03T16:13:30.879Z,23.52
2022-09-03T16:15:41.697Z,23.49
2022-09-03T16:18:06.769Z,23.45
2022-09-03T16:20:31.078Z,23.43
2022-09-03T16:22:37.484Z,23.41
2022-09-03T16:24:55.360Z,23.40
2022-09-03T16:27:06.218Z,23.42
2022-09-03T16:29:12.835Z,23.41
2022-09-03T16:31:28.958Z,23.36
2022-09-03T16:33:57.367Z,23.36
2022-09-03T16:36:04.769Z,23.34
2022-09-03T16:38:27.906Z,23.31
2022-09-03T16:40:35.480Z,23.29
2022-09-03T16:43:18.029Z,23.28
2022-09-03T16:45:51.166Z,23.25
2022-09-03T16:47:53.985Z,23.18
2022-09-03T16:50:13.968Z,23.16
2022-09-03T16:52:39.051Z,23.12
2022-09-03T16:55:03.477Z,23.08
2022-09-03T16:57:26.437Z,23.01
2022-09-03T16:59:27.865Z,23.00
2022-09-03T17:01:41.497Z,23.00
2022-09-03T17:04:07.739Z,22.94
2022-09-03T17:06:27.996Z,22.90
2022-09-03T17:09:01.817Z,22.88
2022-09-03T17:11:13.150Z,22.84
2022-09-03T17:13:32.038Z,22.79
2022-09-03T17:16:28.936Z,22.75
2022-09-03T17:18:49.397Z,22.72
2022-09-03T17:21:12.426Z,22.71
2022-09-03T17:23:33.588Z,22.64
2022-09-03T17:25:51.206Z,22.63
2022-09-03T17:28:24.993Z,22.62
2022-09-03T17:30:48.619Z,22.54
2022-09-03T17:32:57.202Z,22.49
2022-09-03T17:35:20.019Z,22.48
2022-09-03T17:37:27.364Z,22.46
2022-09-03T17:40:01.704Z,22.42
2022-09-03T17:42:12.670Z,22.37
2022-09-03T17:44:33.877Z,22.37
2022-09-03T17:47:05.654Z,22.35
2022-09-03T17:49:09.351Z,22.33
2022-09-03T17:51:31.826Z,22.31
2022-09-03T17:53:44.180Z,22.29
2022-09-03T17:55:56.251Z,22.22
2022-09-03T17:58:14.709Z,22.16
2022-09-03T18:00:40.284Z,22.15
2022-09-03T18:03:01.983Z,22.14
2022-09-03T18:05:30.146Z,22.10
2022-09-03T18:07:44.313Z,22.04
2022-09-03T18:10:06.792Z,22.05
2022-09-03T18:12:59.850Z,22.02
2022-09-03T18:15:15.180Z,21.96
2022-09-03T18:17:34.947Z,21.91
2022-09-03T18:20:14.397Z,21.90
2022-09-03T18:22:34.747Z,21.86
2022-09-03T18:25:03.254Z,21.85
2022-09-03T18:27:36.830Z,21.83
2022-09-03T18:30:09.585Z,21.81
2022-09-03T18:32:29.932Z,21.76
2022-09-03T18:34:52.916Z,21.73
2022-09-03T18:37:16.988Z,21.70
2022-09-03T18:39:47.527Z,21.66
2022-09-03T18:42:23.899Z,21.62
2022-09-03T18:45:24.345Z,21.59
2022-09-03T18:48:20.260Z,21.52
2022-09-03T18:50:46.990Z,21.50
2022-09-03T18:53:20.708Z,21.48
2022-09-03T18:56:14.285Z,21.40
2022-09-03T18:58:53.404Z,21.42
2022-09-03T19:01:38.515Z,21.37
2022-09-03T19:04:21.488Z,21.31
2022-09-03T19:06:58.594Z,21.30
2022-09-03T19:09:24.452Z,21.25
2022-09-03T19:12:03.166Z,21.19
2022-09-03T19:14:32.640Z,21.16
2022-09-03T19:16:58.638Z,21.12
2022-09-03T19:19:41.943Z,21.10
2022-09-03T19:22:28.178Z,21.02
2022-09-03T19:24:49.520Z,21.00
2022-09-03T19:27:55.737Z,20.95
2022-09-03T19:30:27.297Z,20.93
2022-09-03T19:33:17.146Z,20.87
2022-09-03T19:35:45.495Z,20.85
2022-09-03T19:38:14.419Z,20.80
2022-09-03T19:40:46.914Z,20.81
2022-09-03T19:43:48.038Z,20.76
2022-09-03T19:46:42.532Z,20.72
2022-09-03T19:49:24.571Z,20.69
2022-09-03T19:51:53.078Z,20.65
2022-09-03T19:54:14.833Z,20.63
2022-09-03T19:56:46.716Z,20.59
2022-09-03T19:59:21.236Z,20.58
2022-09-03T20:01:47.876Z,20.52
2022-09-03T20:04:09.392Z,20.50
2022-09-03T20:06:30.752Z,20.49
2022-09-03T20:08:52.110Z,20.48
2022-09-03T20:10:59.012Z,20.46
2022-09-03T20:13:10.168Z,20.43
2022-09-03T20:15:11.884Z,20.40
2022-09-03T20:17:13.323Z,20.39
2022-09-03T20:19:41.870Z,20.33
2022-09-03T20:21:55.552Z,20.29
2022-09-03T20:24:24.650Z,20.25
2022-09-03T20:26:28.822Z,20.15
2022-09-03T20:28:52.051Z,20.19
2022-09-03T20:31:08.225Z,20.13
2022-09-03T20:33:23.103Z,20.10
2022-09-03T20:35:38.541Z,20.08
2022-09-03T20:38:27.663Z,20.02
2022-09-03T20:40:45.566Z,19.94
2022-09-03T20:43:05.648Z,19.87
2022-09-03T20:45:10.132Z,19.82
2022-09-03T20:47:36.367Z,19.73
2022-09-03T20:50:07.532Z,19.72
2022-09-03T20:52:18.415Z,19.71
2022-09-03T20:54:32.371Z,19.67
2022-09-03T20:56:40.199Z,19.65
2022-09-03T20:58:58.570Z,19.61
2022-09-03T21:01:09.177Z,19.54
2022-09-03T21:03:22.412Z,19.49
2022-09-03T21:05:35.070Z,19.47
2022-09-03T21:07:37.459Z,19.43
2022-09-03T21:10:02.954Z,19.37
2022-09-03T21:12:42.652Z,19.32
2022-09-03T21:15:01.015Z,19.27
2022-09-03T21:17:15.766Z,19.24
2022-09-03T21:19:24.276Z,19.21
2022-09-03T21:21:45.634Z,19.19
2022-09-03T21:24:03.800Z,19.16
2022-09-03T21:26:21.325Z,19.12
2022-09-03T21:28:28.584Z,19.06
2022-09-03T21:30:32.442Z,19.03
2022-09-03T21:32:50.267Z,19.00
2022-09-03T21:35:08.568Z,18.94
2022-09-03T21:37:12.747Z,18.88
2022-09-03T21:39:27.446Z,18.84
2022-09-03T21:41:50.567Z,18.81
2022-09-03T21:44:12.044Z,18.77
2022-09-03T21:46:18.883Z,18.77
2022-09-03T21:48:24.959Z,18.75
2022-09-03T21:50:34.935Z,18.71
2022-09-03T21:52:47.810Z,18.68
2022-09-03T21:54:49.348Z,18.63
2022-09-03T21:57:23.432Z,18.60
2022-09-03T22:00:08.219Z,18.52
2022-09-03T22:02:17.027Z,18.48
2022-09-03T22:04:18.594Z,18.46
2022-09-03T22:06:28.622Z,18.43
2022-09-03T22:08:44.966Z,18.39
2022-09-03T22:11:05.186Z,18.37
2022-09-03T22:13:15.700Z,18.33
2022-09-03T22:15:19.630Z,18.26
2022-09-03T22:17:46.157Z,18.23
2022-09-03T22:19:47.713Z,18.17
2022-09-03T22:22:00.150Z,18.13
2022-09-03T22:24:31.990Z,18.06
2022-09-03T22:26:45.230Z,17.97
2022-09-03T22:28:56.785Z,17.93
2022-09-03T22:31:27.605Z,17.90
2022-09-03T22:33:54.716Z,17.87
2022-09-03T22:36:02.101Z,17.85
2022-09-03T22:38:28.736Z,17.81
2022-09-03T22:40:55.327Z,17.75
2022-09-03T22:43:08.958Z,17.74
2022-09-03T22:45:21.665Z,17.71
2022-09-03T22:47:37.221Z,17.69
2022-09-03T22:50:11.328Z,17.64
2022-09-03T22:52:32.913Z,17.63
2022-09-03T22:54:43.429Z,17.62
2022-09-03T22:56:45.606Z,17.60
2022-09-03T22:58:56.424Z,17.58
2022-09-03T23:01:05.651Z,17.57
2022-09-03T23:03:19.262Z,17.52
2022-09-03T23:05:38.486Z,17.50
2022-09-03T23:07:58.844Z,17.48
2022-09-03T23:10:11.630Z,17.44
2022-09-03T23:12:20.157Z,17.44
2022-09-03T23:14:28.310Z,17.43
2022-09-03T23:16:53.424Z,17.40
2022-09-03T23:18:57.591Z,17.37
2022-09-03T23:21:07.749Z,17.35
2022-09-03T23:23:20.191Z,17.35
2022-09-03T23:25:31.003Z,17.31
2022-09-03T23:27:58.951Z,17.27
2022-09-03T23:30:02.342Z,17.25
2022-09-03T23:32:07.526Z,17.25
2022-09-03T23:34:10.521Z,17.23
2022-09-03T23:36:51.071Z,17.21
2022-09-03T23:38:56.890Z,17.16
2022-09-03T23:41:04.104Z,17.14
2022-09-03T23:43:33.314Z,17.09
2022-09-03T23:45:53.427Z,17.03
2022-09-03T23:48:08.291Z,17.00
2022-09-03T23:50:15.519Z,16.99
2022-09-03T23:52:35.440Z,16.98
2022-09-03T23:54:55.476Z,16.92
2022-09-03T23:57:03.146Z,16.88
2022-09-03T23:59:28.637Z,16.86
